Time;durP1;ratioP1;P1;durP2;ratioP2;P2;SDS_P1;SDS_P2;PMS_P1;PMS_P2;Temp;Humidity;BMP_temperature;BMP_pressure;BME280_temperature;BME280_humidity;BME280_pressure;Samples;Min_cycle;Max_cycle;Signal;HPM_P1;HPM_P2
2022/11/09 00:01:09;;;;;;;1.70;0.70;;;;;;;12.84;77.57;100341.84;10238551;29;20165;-75
2022/11/09 00:06:11;;;;;;;1.45;0.85;;;;;;;12.77;77.75;100341.84;10239064;29;20055;-75
2022/11/09 00:11:12;;;;;;;1.05;0.75;;;;;;;12.87;77.79;100331.34;10238711;29;20094;-74
2022/11/09 00:16:17;;;;;;;1.95;0.50;;;;;;;12.88;77.83;100330.47;10238942;29;20440;-75
2022/11/09 00:21:21;;;;;;;1.45;0.52;;;;;;;12.96;77.79;100332.22;10238448;29;20045;-75
2022/11/09 00:26:23;;;;;;;2.38;0.68;;;;;;;13.06;77.94;100321.72;10239182;29;20043;-75
2022/11/09 00:31:24;;;;;;;0.85;0.50;;;;;;;13.00;77.89;100318.19;10236435;28;20054;-75
2022/11/09 00:36:28;;;;;;;1.65;0.52;;;;;;;12.94;78.01;100315.56;10205909;29;20054;-74
2022/11/09 00:41:30;;;;;;;1.63;0.73;;;;;;;12.99;78.12;100303.31;10219543;29;20202;-74
2022/11/09 00:46:32;;;;;;;2.13;0.73;;;;;;;12.94;78.10;100305.06;10227429;29;20055;-75
2022/11/09 00:51:33;;;;;;;0.32;0.30;;;;;;;12.94;78.24;100308.59;10219508;29;20041;-76
2022/11/09 00:56:35;;;;;;;0.70;0.52;;;;;;;12.94;78.34;100307.69;10220197;29;20047;-75
2022/11/09 01:01:37;;;;;;;1.33;0.82;;;;;;;12.91;78.27;100312.06;10212681;29;20417;-74
2022/11/09 01:06:39;;;;;;;0.43;0.40;;;;;;;12.87;78.48;100318.19;10237014;29;20049;-74
2022/11/09 01:11:43;;;;;;;0.45;0.45;;;;;;;12.90;78.61;100319.97;10218975;29;20083;-74
2022/11/09 01:16:46;;;;;;;1.02;0.50;;;;;;;12.90;78.28;100317.34;10217812;29;20495;-75
2022/11/09 01:21:47;;;;;;;2.30;1.33;;;;;;;12.83;78.64;100313.81;10235881;29;20533;-74
2022/11/09 01:26:49;;;;;;;0.95;0.47;;;;;;;12.87;78.80;100323.47;10219668;29;20047;-76
2022/11/09 01:31:54;;;;;;;1.65;0.90;;;;;;;12.86;78.75;100326.94;10210195;28;20051;-74
2022/11/09 01:36:55;;;;;;;0.47;0.40;;;;;;;12.82;78.84;100322.59;10219817;29;20047;-75
2022/11/09 01:41:57;;;;;;;0.45;0.40;;;;;;;12.85;78.93;100319.97;10217629;28;20086;-75
2022/11/09 01:47:03;;;;;;;3.67;1.05;;;;;;;12.95;78.98;100310.31;10228718;29;20043;-75
2022/11/09 01:52:13;;;;;;;2.53;0.60;;;;;;;13.01;79.07;100310.31;10218909;29;20051;-74
2022/11/09 01:57:24;;;;;;;2.60;0.77;;;;;;;13.09;78.98;100307.69;10218290;29;20047;-75
2022/11/09 02:02:26;;;;;;;0.55;0.52;;;;;;;13.09;78.84;100303.31;10218701;29;20463;-76
2022/11/09 02:07:28;;;;;;;0.70;0.57;;;;;;;13.08;78.90;100292.78;10218901;29;20046;-77
2022/11/09 02:12:33;;;;;;;2.25;0.65;;;;;;;13.00;79.09;100303.31;10236130;29;20083;-76
2022/11/09 02:17:35;;;;;;;0.57;0.43;;;;;;;13.05;79.25;100291.03;10218894;29;20046;-74
2022/11/09 02:22:37;;;;;;;2.67;0.68;;;;;;;13.05;79.32;100298.91;10217541;29;20055;-74
2022/11/09 02:27:39;;;;;;;1.85;0.90;;;;;;;13.08;79.17;100295.44;10234683;28;20047;-75
2022/11/09 02:32:41;;;;;;;0.95;0.50;;;;;;;13.13;79.28;100309.44;10217299;28;20142;-75
2022/11/09 02:37:49;;;;;;;0.63;0.57;;;;;;;13.18;79.17;100301.53;10235370;28;20118;-74
2022/11/09 02:42:52;;;;;;;1.98;0.88;;;;;;;13.14;79.06;100295.41;10216417;28;20051;-75
2022/11/09 02:47:54;;;;;;;0.50;0.40;;;;;;;13.16;79.25;100296.28;10217293;28;20047;-74
2022/11/09 02:52:56;;;;;;;0.60;0.30;;;;;;;13.24;79.18;100297.16;10216558;28;20493;-75
2022/11/09 02:57:58;;;;;;;0.93;0.70;;;;;;;13.25;79.13;100292.75;10241513;28;20054;-75
2022/11/09 03:03:00;;;;;;;1.30;0.60;;;;;;;13.18;79.24;100285.75;10223611;28;20397;-75
2022/11/09 03:08:01;;;;;;;0.55;0.40;;;;;;;13.20;79.09;100274.38;10224142;29;20059;-75
2022/11/09 03:13:06;;;;;;;1.17;0.80;;;;;;;13.15;79.26;100267.38;10222927;29;20051;-78
2022/11/09 03:18:08;;;;;;;1.40;0.50;;;;;;;13.12;79.26;100286.66;10223838;29;20166;-74
2022/11/09 03:23:11;;;;;;;0.55;0.30;;;;;;;13.08;79.29;100287.53;10223412;29;20094;-74
2022/11/09 03:28:13;;;;;;;1.70;0.63;;;;;;;13.02;79.38;100287.56;10223335;29;20138;-75
2022/11/09 03:33:15;;;;;;;1.95;0.82;;;;;;;12.99;79.57;100292.81;10223434;29;20057;-75
2022/11/09 03:38:17;;;;;;;1.10;0.45;;;;;;;12.96;79.64;100296.31;10222511;29;20202;-74
2022/11/09 03:43:20;;;;;;;1.08;0.63;;;;;;;12.93;79.64;100306.81;10222454;29;20551;-74
2022/11/09 03:48:22;;;;;;;1.38;0.55;;;;;;;12.98;79.80;100309.44;10221522;29;20543;-74
2022/11/09 03:53:24;;;;;;;1.90;0.82;;;;;;;12.98;79.65;100304.19;10221253;29;20531;-75
2022/11/09 03:58:26;;;;;;;0.35;0.35;;;;;;;12.97;79.74;100310.31;10221785;29;20039;-78
2022/11/09 04:03:27;;;;;;;1.10;0.60;;;;;;;12.95;79.64;100326.09;10216443;28;20051;-76
2022/11/09 04:08:29;;;;;;;2.78;0.88;;;;;;;12.94;79.67;100326.09;10236950;28;20055;-75
2022/11/09 04:13:30;;;;;;;1.20;0.60;;;;;;;12.99;79.78;100316.47;10238517;28;20043;-75
2022/11/09 04:18:32;;;;;;;2.90;0.38;;;;;;;12.94;79.88;100311.22;10211939;29;20047;-75
2022/11/09 04:23:34;;;;;;;3.00;0.73;;;;;;;12.90;80.22;100306.81;10238451;28;20541;-75
2022/11/09 04:28:36;;;;;;;1.20;0.60;;;;;;;12.76;80.73;100313.81;10237110;28;20047;-76
2022/11/09 04:33:37;;;;;;;0.20;0.20;;;;;;;12.63;80.97;100308.56;10220750;29;20050;-77
2022/11/09 04:38:39;;;;;;;1.25;0.40;;;;;;;12.54;81.29;100296.28;10232651;28;20254;-75
2022/11/09 04:43:41;;;;;;;0.57;0.40;;;;;;;12.56;81.55;100309.41;10232917;28;20054;-74
2022/11/09 04:48:43;;;;;;;4.43;0.90;;;;;;;12.62;81.57;100325.19;10236179;28;20047;-74
2022/11/09 04:53:44;;;;;;;0.98;0.60;;;;;;;12.69;81.67;100323.47;10235172;28;20047;-75
2022/11/09 04:58:46;;;;;;;0.70;0.40;;;;;;;12.78;81.49;100317.34;10228330;28;20047;-74
2022/11/09 05:03:47;;;;;;;0.52;0.47;;;;;;;12.78;81.64;100310.31;10230396;28;20055;-75
2022/11/09 05:08:49;;;;;;;1.08;0.40;;;;;;;12.78;81.62;100323.47;10231048;28;20398;-74
2022/11/09 05:13:51;;;;;;;1.30;0.85;;;;;;;12.84;81.63;100335.72;10236065;28;20050;-74
2022/11/09 05:18:53;;;;;;;0.30;0.30;;;;;;;12.79;81.54;100333.09;10218267;29;20054;-74
2022/11/09 05:23:58;;;;;;;1.38;0.50;;;;;;;12.71;81.58;100335.69;10235044;28;20118;-74
2022/11/09 05:29:02;;;;;;;0.73;0.40;;;;;;;12.69;81.64;100339.22;10234668;28;20047;-74
2022/11/09 05:34:05;;;;;;;1.33;0.85;;;;;;;12.63;81.62;100342.72;10234650;28;20058;-73
2022/11/09 05:39:07;;;;;;;0.90;0.50;;;;;;;12.56;81.79;100343.56;10216292;29;20308;-74
2022/11/09 05:44:08;;;;;;;1.50;0.52;;;;;;;12.55;81.75;100336.56;10216775;29;20102;-74
2022/11/09 05:49:10;;;;;;;0.88;0.63;;;;;;;12.50;81.73;100333.06;10233897;28;20043;-75
2022/11/09 05:54:11;;;;;;;0.63;0.43;;;;;;;12.50;81.69;100333.91;10216743;29;20062;-74
2022/11/09 05:59:13;;;;;;;5.80;0.85;;;;;;;12.47;81.81;100343.53;10233506;28;20511;-75
2022/11/09 06:04:14;;;;;;;2.20;0.80;;;;;;;12.48;81.81;100346.19;10233499;28;20051;-74
2022/11/09 06:09:16;;;;;;;1.40;0.50;;;;;;;12.46;81.75;100355.81;10233369;28;20072;-74
2022/11/09 06:14:17;;;;;;;0.73;0.68;;;;;;;12.53;81.65;100356.69;10226263;29;20571;-75
2022/11/09 06:19:19;;;;;;;0.40;0.40;;;;;;;12.55;81.56;100362.84;10233324;28;20451;-74
2022/11/09 06:24:20;;;;;;;2.17;0.95;;;;;;;12.60;81.35;100357.59;10233622;28;20051;-74
2022/11/09 06:29:22;;;;;;;0.40;0.40;;;;;;;12.68;81.16;100358.47;10235853;28;20054;-75
2022/11/09 06:34:23;;;;;;;0.20;0.20;;;;;;;12.65;81.12;100375.09;10241887;28;20078;-75
2022/11/09 06:39:25;;;;;;;0.82;0.40;;;;;;;12.63;80.87;100382.09;10241190;28;20047;-73
2022/11/09 06:44:26;;;;;;;0.65;0.30;;;;;;;12.58;80.66;100393.47;10216890;29;20062;-73
2022/11/09 06:49:28;;;;;;;1.67;0.40;;;;;;;12.50;80.86;100398.69;10222879;29;20043;-73
2022/11/09 06:54:30;;;;;;;2.42;1.38;;;;;;;12.41;80.90;100406.56;10241008;28;20050;-74
2022/11/09 06:59:32;;;;;;;1.02;0.60;;;;;;;12.42;80.84;100414.44;10239929;28;20047;-74
2022/11/09 07:04:34;;;;;;;3.28;0.68;;;;;;;12.40;80.84;100408.31;10223241;29;20527;-76
2022/11/09 07:09:35;;;;;;;1.80;0.55;;;;;;;12.41;80.60;100417.06;10241152;28;20787;-74
2022/11/09 07:14:37;;;;;;;1.63;0.63;;;;;;;12.35;80.56;100420.53;10241509;28;20046;-75
2022/11/09 07:19:38;;;;;;;0.20;0.20;;;;;;;12.33;80.27;100428.41;10239194;28;20044;-74
2022/11/09 07:24:40;;;;;;;0.52;0.20;;;;;;;12.30;80.48;100432.78;10239570;28;20602;-75
2022/11/09 07:29:41;;;;;;;0.30;0.30;;;;;;;12.34;80.53;100438.03;10239229;28;20051;-76
2022/11/09 07:34:45;;;;;;;0.20;0.20;;;;;;;13.58;79.58;100439.13;10241627;28;20045;-73
2022/11/09 07:39:46;;;;;;;2.60;0.25;;;;;;;14.32;77.18;100439.00;10222603;28;20040;-77
2022/11/09 07:44:48;;;;;;;1.08;0.35;;;;;;;15.51;74.54;100445.31;10242173;28;20058;-76
2022/11/09 07:49:49;;;;;;;0.17;0.17;;;;;;;16.21;72.63;100449.03;10241804;28;20043;-77
2022/11/09 07:54:51;;;;;;;0.47;0.25;;;;;;;16.90;69.14;100454.34;10241806;28;20050;-75
2022/11/09 07:59:53;;;;;;;2.47;0.47;;;;;;;16.83;68.00;100452.66;10239166;28;20074;-75
2022/11/09 08:04:54;;;;;;;1.88;0.45;;;;;;;14.79;68.74;100451.97;10238730;28;20036;-75
2022/11/09 08:09:56;;;;;;;0.70;0.52;;;;;;;13.59;71.39;100456.69;10237490;28;20450;-75
2022/11/09 08:14:57;;;;;;;2.53;0.50;;;;;;;13.19;73.28;100447.88;10237962;28;20039;-74
2022/11/09 08:19:59;;;;;;;0.80;0.30;;;;;;;13.60;74.32;100453.19;10236095;28;20554;-75
2022/11/09 08:25:00;;;;;;;2.65;1.13;;;;;;;13.47;74.78;100451.44;10229459;28;20122;-77
2022/11/09 08:30:02;;;;;;;3.00;0.45;;;;;;;13.76;75.22;100451.41;10235480;28;20047;-76
2022/11/09 08:35:04;;;;;;;0.32;0.32;;;;;;;13.91;74.99;100454.91;10236867;28;20050;-74
2022/11/09 08:40:06;;;;;;;0.50;0.30;;;;;;;13.74;74.83;100468.09;10236041;29;20047;-74
2022/11/09 08:45:09;;;;;;;3.20;1.02;;;;;;;13.88;75.23;100462.81;10236437;29;20050;-75
2022/11/09 08:50:12;;;;;;;1.33;0.40;;;;;;;14.06;75.10;100467.16;10235062;28;20055;-74
2022/11/09 08:55:14;;;;;;;2.42;0.52;;;;;;;13.97;74.75;100468.91;10228356;28;20420;-75
2022/11/09 09:00:16;;;;;;;1.25;0.40;;;;;;;14.00;74.93;100477.69;10236574;29;20043;-79
2022/11/09 09:05:18;;;;;;;0.75;0.47;;;;;;;13.94;74.99;100478.59;10219517;29;20042;-73
2022/11/09 09:10:20;;;;;;;0.68;0.40;;;;;;;14.25;75.03;100479.38;10215469;29;20039;-72
2022/11/09 09:15:22;;;;;;;3.85;0.50;;;;;;;14.18;74.74;100487.31;10236342;29;20098;-72
2022/11/09 09:20:23;;;;;;;1.42;0.65;;;;;;;13.97;74.64;100483.84;10235285;29;20046;-72
2022/11/09 09:25:25;;;;;;;0.38;0.28;;;;;;;13.96;74.75;100493.50;10235799;29;20047;-72
2022/11/09 09:30:27;;;;;;;1.10;0.40;;;;;;;14.18;74.62;100509.25;10234022;28;20058;-75
2022/11/09 09:35:29;;;;;;;3.17;0.80;;;;;;;14.14;74.70;100510.13;10227657;29;20047;-73
2022/11/09 09:40:39;;;;;;;1.90;0.40;;;;;;;14.13;74.49;100511.88;10235556;29;20058;-73
2022/11/09 09:45:50;;;;;;;2.78;0.88;;;;;;;14.09;74.56;100514.53;10234969;29;20048;-72
2022/11/09 09:50:53;;;;;;;0.38;0.30;;;;;;;14.32;74.52;100518.00;10233717;29;20276;-74
2022/11/09 09:56:15;;;;;;;2.45;1.40;;;;;;;14.42;74.08;100520.59;10234631;29;20051;-72
2022/11/09 10:01:22;;;;;;;2.55;0.90;;;;;;;14.26;73.64;100523.28;10235538;29;20247;-72
2022/11/09 10:06:58;;;;;;;4.90;0.50;;;;;;;13.99;73.48;100532.13;10234267;29;20043;-72
2022/11/09 10:12:41;;;;;;;0.88;0.40;;;;;;;14.23;73.27;100523.28;10229029;29;20224;-74
2022/11/09 10:18:24;;;;;;;0.98;0.55;;;;;;;14.28;73.27;100534.69;10216721;28;20039;-73
2022/11/09 10:23:31;;;;;;;0.40;0.35;;;;;;;14.15;72.97;100523.28;10195490;28;20484;-72
2022/11/09 10:28:38;;;;;;;0.98;0.65;;;;;;;14.26;73.09;100525.91;10237558;28;20046;-73
2022/11/09 10:34:16;;;;;;;2.72;0.50;;;;;;;14.17;72.75;100525.03;10235596;28;20043;-74
2022/11/09 10:39:21;;;;;;;2.95;0.40;;;;;;;14.16;72.97;100526.81;10232884;28;20039;-75
2022/11/09 10:44:42;;;;;;;0.85;0.40;;;;;;;14.01;72.63;100532.09;10233489;28;20055;-74
2022/11/09 10:50:12;;;;;;;1.08;0.55;;;;;;;13.73;72.55;100532.09;10232392;28;20415;-75
2022/11/09 10:55:35;;;;;;;0.43;0.20;;;;;;;13.49;72.69;100530.34;10219667;28;20423;-75
2022/11/09 11:01:00;;;;;;;1.60;0.85;;;;;;;13.38;73.11;100520.69;10205379;28;20083;-74
2022/11/09 11:06:20;;;;;;;1.77;0.43;;;;;;;13.66;73.15;100523.34;10216943;28;20043;-72
2022/11/09 11:11:40;;;;;;;;;;;;;;;13.93;72.79;100521.56;10212760;28;20047;-74
2022/11/09 11:17:00;;;;;;;4.95;1.10;;;;;;;14.22;72.19;100518.91;10215264;28;20012;-74
2022/11/09 11:22:26;;;;;;;;;;;;;;;14.36;71.37;100521.50;10210484;28;20043;-75
2022/11/09 11:27:56;;;;;;;2.28;0.63;;;;;;;14.57;71.19;100511.78;10200729;28;20157;-75
2022/11/09 11:33:20;;;;;;;0.63;0.40;;;;;;;14.81;70.60;100510.81;10194523;28;20063;-75
2022/11/09 11:38:47;;;;;;;1.05;0.70;;;;;;;14.81;70.19;100510.81;10212834;28;20378;-74
2022/11/09 11:44:45;;;;;;;1.67;0.63;;;;;;;14.75;70.02;100516.13;10183185;28;21881;-75
2022/11/09 11:50:54;;;;;;;0.95;0.40;;;;;;;14.55;70.37;100518.81;10199145;29;20044;-74
2022/11/09 11:56:20;;;;;;;0.88;0.30;;;;;;;14.58;70.58;100513.53;10216399;28;20052;-75
2022/11/09 12:02:08;;;;;;;1.17;0.45;;;;;;;14.72;70.78;100516.13;10202601;28;20504;-75
2022/11/09 12:07:47;;;;;;;1.17;0.45;;;;;;;14.74;70.40;100511.72;10219494;28;20503;-74
2022/11/09 12:13:30;;;;;;;3.75;0.88;;;;;;;14.53;70.10;100510.03;10214251;28;20055;-74
2022/11/09 12:19:10;;;;;;;0.40;0.22;;;;;;;14.58;69.45;100497.72;10227702;28;20043;-75
2022/11/09 12:24:41;;;;;;;3.10;0.60;;;;;;;14.60;69.31;100502.09;10221122;28;20419;-75
2022/11/09 12:30:16;;;;;;;2.20;0.52;;;;;;;14.92;69.51;100510.75;10235649;28;20047;-74
2022/11/09 12:36:08;;;;;;;1.27;0.35;;;;;;;14.91;68.97;100496.72;10227840;29;20094;-75
2022/11/09 12:41:34;;;;;;;3.95;0.65;;;;;;;14.83;68.88;100496.75;10192334;28;20048;-75
2022/11/09 12:47:14;;;;;;;0.60;0.30;;;;;;;14.69;69.08;100505.63;10217903;28;20055;-75
2022/11/09 12:52:35;;;;;;;2.42;0.32;;;;;;;14.82;68.69;100513.44;10209779;28;20043;-74
2022/11/09 12:57:56;;;;;;;3.25;0.40;;;;;;;14.85;68.45;100512.56;10213504;28;20504;-76
2022/11/09 13:03:26;;;;;;;1.02;0.32;;;;;;;14.55;67.76;100521.47;10206255;28;20512;-77
2022/11/09 13:09:07;;;;;;;0.20;0.20;;;;;;;14.27;67.88;100522.38;10203966;29;20040;-77
2022/11/09 13:14:33;;;;;;;1.07;0.23;;;;;;;14.10;68.16;100524.19;10233919;28;20039;-76
2022/11/09 13:19:55;;;;;;;0.63;0.30;;;;;;;14.08;68.50;100518.03;10234119;28;20038;-76
2022/11/09 13:25:46;;;;;;;1.85;0.17;;;;;;;14.20;69.03;100512.78;10235254;29;20043;-76
2022/11/09 13:31:08;;;;;;;1.55;0.60;;;;;;;14.43;69.23;100515.31;10235156;28;20582;-75
2022/11/09 13:36:28;;;;;;;0.80;0.50;;;;;;;14.21;68.86;100519.75;10233706;28;20562;-75
2022/11/09 13:41:48;;;;;;;0.65;0.25;;;;;;;14.12;69.21;100535.59;10206362;29;20478;-75
2022/11/09 13:47:25;;;;;;;1.10;0.20;;;;;;;14.18;69.28;100524.19;10235430;28;20178;-75
2022/11/09 13:52:50;;;;;;;0.20;0.20;;;;;;;14.04;69.31;100521.56;10234813;29;20087;-74
2022/11/09 13:58:36;;;;;;;0.55;0.40;;;;;;;13.88;69.47;100521.56;10219777;28;20043;-74
2022/11/09 14:03:56;;;;;;;1.70;0.55;;;;;;;13.81;69.39;100522.47;10234211;28;20534;-74
2022/11/09 14:09:19;;;;;;;0.98;0.43;;;;;;;13.79;69.59;100527.72;10219524;29;20047;-74
2022/11/09 14:15:08;;;;;;;0.60;0.30;;;;;;;13.76;69.50;100546.13;10227506;28;20074;-74
2022/11/09 14:20:39;;;;;;;1.38;0.30;;;;;;;13.77;69.53;100539.13;10231206;29;20043;-74
2022/11/09 14:26:07;;;;;;;0.40;0.10;;;;;;;13.76;69.35;100546.13;10234763;29;20499;-73
2022/11/09 14:31:29;;;;;;;1.65;0.63;;;;;;;13.74;69.06;100554.94;10219697;28;20035;-74
2022/11/09 14:36:49;;;;;;;0.38;0.30;;;;;;;13.70;68.71;100563.69;10235306;29;20063;-74
2022/11/09 14:42:17;;;;;;;0.50;0.40;;;;;;;13.68;68.79;100568.94;10234317;29;20047;-74
2022/11/09 14:47:38;;;;;;;0.85;0.35;;;;;;;13.63;69.03;100572.44;10235733;29;20056;-75
2022/11/09 14:53:00;;;;;;;0.38;0.32;;;;;;;13.56;69.70;100585.59;10241120;28;20047;-74
2022/11/09 14:58:21;;;;;;;0.20;0.20;;;;;;;13.54;69.90;100584.72;10242626;28;20075;-76
2022/11/09 15:03:43;;;;;;;0.88;0.35;;;;;;;13.47;70.34;100590.84;10241892;28;20051;-74
2022/11/09 15:09:07;;;;;;;0.30;0.20;;;;;;;13.37;70.64;100589.06;10239778;28;20043;-74
2022/11/09 15:14:31;;;;;;;2.83;0.65;;;;;;;13.35;70.72;100594.31;10232683;28;20506;-75
2022/11/09 15:20:18;;;;;;;0.55;0.30;;;;;;;13.26;70.98;100594.25;10240007;28;20544;-77
2022/11/09 15:25:42;;;;;;;0.95;0.47;;;;;;;13.17;71.50;100602.13;10241145;29;20423;-74
2022/11/09 15:31:02;;;;;;;0.52;0.20;;;;;;;13.06;72.03;100592.44;10239405;28;20130;-77
2022/11/09 15:36:33;;;;;;;;;;;;;;;12.98;72.61;100595.91;10241343;29;20039;-74
2022/11/09 15:41:54;;;;;;;0.75;0.50;;;;;;;12.95;72.71;100602.03;10239762;29;20396;-74
2022/11/09 15:47:30;;;;;;;2.75;0.95;;;;;;;12.82;72.88;100597.56;10240705;29;20043;-75
2022/11/09 15:52:51;;;;;;;0.73;0.30;;;;;;;12.67;73.22;100598.38;10239601;28;20138;-74
2022/11/09 15:58:13;;;;;;;2.95;0.88;;;;;;;12.57;73.73;100617.59;10239634;28;20110;-74
2022/11/09 16:03:33;;;;;;;1.75;0.55;;;;;;;12.44;73.59;100622.75;10231748;28;20153;-74
2022/11/09 16:08:54;;;;;;;0.28;0.28;;;;;;;12.36;73.72;100619.22;10238760;28;20043;-74
2022/11/09 16:14:16;;;;;;;1.50;0.60;;;;;;;12.30;73.97;100625.28;10238088;28;20039;-74
2022/11/09 16:19:38;;;;;;;0.75;0.47;;;;;;;12.24;74.17;100625.25;10238686;28;20066;-74
2022/11/09 16:24:58;;;;;;;1.60;0.45;;;;;;;12.14;74.58;100621.66;10238772;28;20047;-75
2022/11/09 16:30:19;;;;;;;0.20;0.20;;;;;;;12.11;74.74;100649.63;10231514;28;20047;-75
2022/11/09 16:35:40;;;;;;;1.13;0.60;;;;;;;12.07;74.96;100646.13;10238441;28;20526;-75
2022/11/09 16:41:01;;;;;;;;;;;;;;;12.11;74.99;100653.13;10239501;29;20047;-74
2022/11/09 16:46:27;;;;;;;0.98;0.43;;;;;;;12.11;75.19;100661.00;10237577;28;19926;-76
2022/11/09 16:51:47;;;;;;;1.85;0.60;;;;;;;12.16;75.19;100675.06;10238165;28;20055;-72
2022/11/09 16:57:08;;;;;;;2.35;0.80;;;;;;;12.12;75.93;100681.16;10243381;28;20065;-75
2022/11/09 17:02:28;;;;;;;0.38;0.38;;;;;;;12.08;76.35;100694.22;10236908;28;20047;-76
2022/11/09 17:07:48;;;;;;;1.15;0.65;;;;;;;12.11;76.40;100705.63;10236771;28;20047;-74
2022/11/09 17:13:10;;;;;;;0.70;0.55;;;;;;;12.10;76.82;100716.09;10230536;28;20047;-75
2022/11/09 17:18:30;;;;;;;0.68;0.30;;;;;;;11.89;77.71;100715.00;10236923;28;20043;-76
2022/11/09 17:23:50;;;;;;;;;;;;;;;11.74;78.79;100722.69;10238439;28;20050;-74
2022/11/09 17:29:11;;;;;;;3.85;0.98;;;;;;;11.58;79.95;100738.25;10237382;28;19923;-76
2022/11/09 17:34:31;;;;;;;0.60;0.40;;;;;;;11.49;80.93;100760.00;10221834;29;20130;-75
2022/11/09 17:39:52;;;;;;;2.00;0.90;;;;;;;11.36;82.01;100758.06;10231201;29;20047;-82
2022/11/09 17:45:12;;;;;;;3.88;1.27;;;;;;;11.14;83.11;100763.03;10231434;29;20055;-80
2022/11/09 17:50:32;;;;;;;3.85;1.55;;;;;;;10.95;84.29;100772.34;10223998;29;20043;-78
2022/11/09 17:55:52;;;;;;;;;;;;;;;10.84;85.26;100783.50;10230927;28;20150;-74
2022/11/09 18:01:16;;;;;;;1.58;0.50;;;;;;;10.71;86.09;100779.84;10236093;29;20009;-74
2022/11/09 18:06:36;;;;;;;1.55;0.77;;;;;;;10.61;86.69;100786.63;10241868;28;20047;-74
2022/11/09 18:11:56;;;;;;;0.75;0.52;;;;;;;10.56;87.33;100797.03;10234871;29;20055;-75
2022/11/09 18:17:17;;;;;;;0.75;0.43;;;;;;;10.53;87.94;100807.47;10231970;29;22013;-76
2022/11/09 18:22:37;;;;;;;0.38;0.38;;;;;;;10.49;88.48;100820.47;10234576;28;20126;-76
2022/11/09 18:27:57;;;;;;;;;;;;;;;10.42;88.69;100828.22;10243996;28;20432;-76
2022/11/09 18:33:18;;;;;;;1.10;0.68;;;;;;;10.40;89.14;100835.16;10245889;28;20294;-75
2022/11/09 18:38:38;;;;;;;0.98;0.60;;;;;;;10.40;89.39;100836.88;10233801;28;20150;-77
2022/11/09 18:43:58;;;;;;;3.63;0.73;;;;;;;10.40;89.61;100845.63;10247233;28;20039;-77
2022/11/09 18:49:19;;;;;;;1.25;0.38;;;;;;;10.36;89.60;100843.81;10240393;28;20062;-77
2022/11/09 18:54:39;;;;;;;2.13;0.98;;;;;;;10.37;89.92;100861.28;10241134;28;20043;-77
2022/11/09 19:00:00;;;;;;;2.03;1.38;;;;;;;10.32;90.01;100865.50;10241432;28;20039;-77
2022/11/09 19:05:20;;;;;;;0.65;0.60;;;;;;;10.22;90.06;100863.56;10246582;28;20427;-77
2022/11/09 19:10:40;;;;;;;2.28;0.95;;;;;;;10.25;90.33;100876.69;10242946;28;20054;-77
2022/11/09 19:16:00;;;;;;;0.93;0.90;;;;;;;10.20;90.50;100883.59;10246188;28;20051;-78
2022/11/09 19:21:23;;;;;;;0.63;0.60;;;;;;;10.13;90.55;100892.16;10240697;29;20051;-77
2022/11/09 19:26:44;;;;;;;0.40;0.40;;;;;;;10.13;90.69;100902.63;10239899;28;20546;-77
2022/11/09 19:32:04;;;;;;;0.95;0.45;;;;;;;10.11;90.94;100909.56;10239874;28;20047;-78
2022/11/09 19:37:24;;;;;;;0.40;0.40;;;;;;;10.07;91.02;100917.34;10239719;28;20051;-77
2022/11/09 19:42:45;;;;;;;1.90;0.80;;;;;;;10.02;91.08;100918.09;10240696;29;20043;-77
2022/11/09 19:48:05;;;;;;;;;;;;;;;10.01;91.17;100930.31;10225873;28;20500;-77
2022/11/09 19:53:27;;;;;;;0.55;0.50;;;;;;;9.99;91.22;100936.34;10239588;28;20008;-77
2022/11/09 19:58:49;;;;;;;1.08;0.90;;;;;;;9.99;91.31;100939.84;10239793;28;20055;-77
2022/11/09 20:04:09;;;;;;;0.70;0.43;;;;;;;9.95;91.46;100951.06;10239967;28;20047;-77
2022/11/09 20:09:30;;;;;;;;;;;;;;;9.95;91.46;100950.19;10239710;28;20082;-77
2022/11/09 20:14:50;;;;;;;0.90;0.55;;;;;;;9.96;91.51;100965.94;10222405;29;19926;-76
2022/11/09 20:20:14;;;;;;;1.15;0.70;;;;;;;9.95;91.56;100971.13;10231678;29;20043;-76
2022/11/09 20:25:34;;;;;;;3.28;0.65;;;;;;;9.93;91.55;100983.31;10239026;29;20118;-76
2022/11/09 20:30:55;;;;;;;0.52;0.52;;;;;;;9.91;91.54;100986.75;10222638;28;20039;-76
2022/11/09 20:36:17;;;;;;;0.30;0.30;;;;;;;9.93;91.69;100994.63;10236741;29;20078;-76
2022/11/09 20:41:37;;;;;;;3.03;0.82;;;;;;;10.00;91.75;101001.78;10236792;29;20047;-76
2022/11/09 20:46:58;;;;;;;;;;;;;;;10.05;91.63;101004.50;10238363;28;20071;-76
2022/11/09 20:52:19;;;;;;;0.40;0.40;;;;;;;10.07;91.59;101008.94;10237836;29;20457;-76
2022/11/09 20:57:38;;;;;;;0.52;0.50;;;;;;;10.11;91.57;101029.94;10238801;29;20059;-77
2022/11/09 21:02:59;;;;;;;1.42;0.63;;;;;;;10.12;91.67;101031.66;10236754;28;20051;-76
2022/11/09 21:08:19;;;;;;;1.45;1.08;;;;;;;10.14;91.55;101040.47;10237544;28;20566;-76
2022/11/09 21:13:41;;;;;;;0.88;0.40;;;;;;;10.16;91.64;101046.59;10236808;28;20789;-76
2022/11/09 21:19:02;;;;;;;1.08;0.68;;;;;;;10.16;91.42;101055.31;10235883;28;20047;-76
2022/11/09 21:30:01;;;;;;;0.30;0.30;;;;;;;10.05;91.84;101062.94;10235125;28;20145;-77
2022/11/09 21:35:21;;;;;;;0.68;0.52;;;;;;;10.03;91.86;101082.09;10230048;29;20125;-78
2022/11/09 21:40:42;;;;;;;4.03;1.23;;;;;;;10.03;92.12;101085.56;10238000;29;20507;-78
2022/11/09 21:46:02;;;;;;;2.38;0.70;;;;;;;9.98;92.00;101087.16;10237950;29;20059;-78
2022/11/09 21:51:23;;;;;;;2.33;0.70;;;;;;;9.97;92.08;101098.50;10238703;29;20650;-79
2022/11/09 21:56:43;;;;;;;1.35;0.60;;;;;;;9.97;92.16;101093.28;10236775;29;20047;-76
2022/11/09 22:02:03;;;;;;;;;;;;;;;9.93;92.10;101096.66;10223178;29;20051;-76
2022/11/09 22:07:23;;;;;;;1.63;1.08;;;;;;;9.88;92.28;101095.66;10237568;29;20298;-76
2022/11/09 22:24:09;;;;;;;1.33;0.90;;;;;;;9.75;92.14;101128.47;10234983;28;20134;-77
2022/11/09 22:29:29;;;;;;;3.63;1.00;;;;;;;9.63;92.10;101130.75;10234755;28;20044;-77
2022/11/09 22:34:49;;;;;;;0.40;0.40;;;;;;;9.64;92.56;101143.88;10236065;28;20114;-77
2022/11/09 22:40:10;;;;;;;2.05;1.00;;;;;;;9.59;92.46;101148.06;10233077;28;20055;-77
2022/11/09 22:45:32;;;;;;;;;;;;;;;9.53;92.44;101153.16;10235254;29;20055;-77
2022/11/09 22:50:52;;;;;;;2.13;1.10;;;;;;;9.46;92.37;101161.69;10234009;29;19926;-77
2022/11/09 22:56:12;;;;;;;1.02;0.60;;;;;;;9.41;92.24;101169.38;10212659;29;20552;-77
2022/11/09 23:01:33;;;;;;;2.25;0.73;;;;;;;9.36;92.12;101178.81;10227879;29;20039;-77
2022/11/09 23:06:53;;;;;;;0.60;0.47;;;;;;;9.33;92.40;101194.41;10234391;29;20409;-77
2022/11/09 23:12:13;;;;;;;;;;;;;;;9.35;92.03;101197.94;10237674;28;20051;-77
2022/11/09 23:23:14;;;;;;;1.35;0.85;;;;;;;9.23;92.06;101203.69;10240520;28;20047;-76
2022/11/09 23:28:34;;;;;;;6.07;0.82;;;;;;;9.18;91.86;101215.75;10220531;28;20051;-77
2022/11/09 23:33:56;;;;;;;2.45;0.52;;;;;;;9.10;91.99;101212.94;10241366;28;20051;-76
2022/11/09 23:39:17;;;;;;;0.55;0.50;;;;;;;9.06;91.88;101218.88;10239980;28;20063;-77
2022/11/09 23:44:37;;;;;;;1.83;0.38;;;;;;;9.04;92.09;101238.88;10235384;29;20087;-76
2022/11/09 23:49:57;;;;;;;4.65;0.70;;;;;;;9.00;92.09;101242.22;10240334;28;20129;-76
2022/11/09 23:55:17;;;;;;;;;;;;;;;8.94;92.16;101252.47;10240424;28;20051;-77
